sensor_id;sensor_type;location;lat;lon;timestamp;pressure;altitude;pressure_sealevel;temperature;humidity
50356;BME280;36264;51.296;-0.602;2022-07-23T00:01:16;101669.56;;;17.59;70.48
50356;BME280;36264;51.296;-0.602;2022-07-23T00:03:42;101672.06;;;17.62;70.07
50356;BME280;36264;51.296;-0.602;2022-07-23T00:06:07;101661.47;;;17.63;69.93
50356;BME280;36264;51.296;-0.602;2022-07-23T00:08:33;101666.78;;;17.62;70.38
50356;BME280;36264;51.296;-0.602;2022-07-23T00:10:58;101665.41;;;17.54;70.67
50356;BME280;36264;51.296;-0.602;2022-07-23T00:13:24;101670.84;;;17.50;70.58
50356;BME280;36264;51.296;-0.602;2022-07-23T00:15:49;101668.56;;;17.42;70.77
50356;BME280;36264;51.296;-0.602;2022-07-23T00:18:14;101667.19;;;17.33;70.79
50356;BME280;36264;51.296;-0.602;2022-07-23T00:20:40;101667.50;;;17.27;70.95
50356;BME280;36264;51.296;-0.602;2022-07-23T00:23:05;101666.03;;;17.20;70.85
50356;BME280;36264;51.296;-0.602;2022-07-23T00:25:31;101662.97;;;17.10;71.12
50356;BME280;36264;51.296;-0.602;2022-07-23T00:28:00;101665.03;;;17.04;71.19
50356;BME280;36264;51.296;-0.602;2022-07-23T00:30:27;101663.63;;;16.95;71.32
50356;BME280;36264;51.296;-0.602;2022-07-23T00:32:57;101664.03;;;16.86;71.41
50356;BME280;36264;51.296;-0.602;2022-07-23T00:35:24;101663.53;;;16.76;71.73
50356;BME280;36264;51.296;-0.602;2022-07-23T00:37:50;101667.28;;;16.70;71.80
50356;BME280;36264;51.296;-0.602;2022-07-23T00:40:16;101668.41;;;16.64;72.08
50356;BME280;36264;51.296;-0.602;2022-07-23T00:42:41;101666.03;;;16.58;72.13
50356;BME280;36264;51.296;-0.602;2022-07-23T00:45:08;101668.91;;;16.52;72.43
50356;BME280;36264;51.296;-0.602;2022-07-23T00:47:34;101672.41;;;16.53;72.57
50356;BME280;36264;51.296;-0.602;2022-07-23T00:49:59;101668.72;;;16.57;72.36
50356;BME280;36264;51.296;-0.602;2022-07-23T00:52:25;101666.81;;;16.60;72.37
50356;BME280;36264;51.296;-0.602;2022-07-23T00:54:51;101665.84;;;16.63;72.39
50356;BME280;36264;51.296;-0.602;2022-07-23T00:57:16;101658.75;;;16.65;72.10
50356;BME280;36264;51.296;-0.602;2022-07-23T00:59:42;101653.38;;;16.68;72.36
50356;BME280;36264;51.296;-0.602;2022-07-23T01:02:07;101648.00;;;16.71;72.11
50356;BME280;36264;51.296;-0.602;2022-07-23T01:04:33;101646.19;;;16.73;72.10
50356;BME280;36264;51.296;-0.602;2022-07-23T01:07:00;101641.84;;;16.72;71.96
50356;BME280;36264;51.296;-0.602;2022-07-23T01:09:26;101648.00;;;16.71;72.05
50356;BME280;36264;51.296;-0.602;2022-07-23T01:11:53;101649.13;;;16.65;72.23
50356;BME280;36264;51.296;-0.602;2022-07-23T01:14:19;101649.44;;;16.58;72.22
50356;BME280;36264;51.296;-0.602;2022-07-23T01:16:46;101654.03;;;16.53;72.43
50356;BME280;36264;51.296;-0.602;2022-07-23T01:19:12;101653.47;;;16.44;72.54
50356;BME280;36264;51.296;-0.602;2022-07-23T01:21:42;101644.94;;;16.39;72.83
50356;BME280;36264;51.296;-0.602;2022-07-23T01:24:09;101649.53;;;16.34;73.04
50356;BME280;36264;51.296;-0.602;2022-07-23T01:26:35;101641.84;;;16.29;72.88
50356;BME280;36264;51.296;-0.602;2022-07-23T01:29:00;101652.53;;;16.25;73.27
50356;BME280;36264;51.296;-0.602;2022-07-23T01:31:26;101654.50;;;16.20;73.61
50356;BME280;36264;51.296;-0.602;2022-07-23T01:33:52;101649.50;;;16.14;73.72
50356;BME280;36264;51.296;-0.602;2022-07-23T01:36:17;101648.44;;;16.18;74.28
50356;BME280;36264;51.296;-0.602;2022-07-23T01:38:43;101648.31;;;16.21;74.26
50356;BME280;36264;51.296;-0.602;2022-07-23T01:41:08;101652.66;;;16.22;74.23
50356;BME280;36264;51.296;-0.602;2022-07-23T01:43:33;101652.53;;;16.25;74.67
50356;BME280;36264;51.296;-0.602;2022-07-23T01:45:59;101657.59;;;16.29;74.28
50356;BME280;36264;51.296;-0.602;2022-07-23T01:48:24;101656.63;;;16.32;74.47
50356;BME280;36264;51.296;-0.602;2022-07-23T01:50:49;101655.63;;;16.35;75.34
50356;BME280;36264;51.296;-0.602;2022-07-23T01:53:15;101654.66;;;16.37;75.30
50356;BME280;36264;51.296;-0.602;2022-07-23T01:55:41;101657.09;;;16.42;74.88
50356;BME280;36264;51.296;-0.602;2022-07-23T01:58:06;101655.97;;;16.47;74.50
50356;BME280;36264;51.296;-0.602;2022-07-23T02:00:32;101659.47;;;16.48;74.90
50356;BME280;36264;51.296;-0.602;2022-07-23T02:02:57;101652.31;;;16.52;74.93
50356;BME280;36264;51.296;-0.602;2022-07-23T02:05:26;101659.06;;;16.57;74.59
50356;BME280;36264;51.296;-0.602;2022-07-23T02:07:54;101649.25;;;16.62;74.34
50356;BME280;36264;51.296;-0.602;2022-07-23T02:10:20;101657.13;;;16.62;74.50
50356;BME280;36264;51.296;-0.602;2022-07-23T02:12:45;101651.81;;;16.64;74.75
50356;BME280;36264;51.296;-0.602;2022-07-23T02:15:10;101647.34;;;16.66;74.64
50356;BME280;36264;51.296;-0.602;2022-07-23T02:17:36;101651.69;;;16.67;74.67
50356;BME280;36264;51.296;-0.602;2022-07-23T02:20:02;101644.59;;;16.69;74.51
50356;BME280;36264;51.296;-0.602;2022-07-23T02:22:27;101646.25;;;16.72;74.55
50356;BME280;36264;51.296;-0.602;2022-07-23T02:24:52;101646.09;;;16.75;74.31
50356;BME280;36264;51.296;-0.602;2022-07-23T02:27:18;101646.03;;;16.76;74.57
50356;BME280;36264;51.296;-0.602;2022-07-23T02:29:43;101646.84;;;16.78;74.37
50356;BME280;36264;51.296;-0.602;2022-07-23T02:32:09;101652.97;;;16.77;74.47
50356;BME280;36264;51.296;-0.602;2022-07-23T02:34:34;101651.19;;;16.78;74.63
50356;BME280;36264;51.296;-0.602;2022-07-23T02:36:59;101653.81;;;16.78;74.58
50356;BME280;36264;51.296;-0.602;2022-07-23T02:39:25;101656.44;;;16.78;74.63
50356;BME280;36264;51.296;-0.602;2022-07-23T02:41:51;101657.31;;;16.78;74.54
50356;BME280;36264;51.296;-0.602;2022-07-23T02:44:16;101644.47;;;16.72;74.79
50356;BME280;36264;51.296;-0.602;2022-07-23T02:46:41;101662.56;;;16.78;74.81
50356;BME280;36264;51.296;-0.602;2022-07-23T02:49:07;101659.13;;;16.76;74.75
50356;BME280;36264;51.296;-0.602;2022-07-23T02:51:32;101659.31;;;16.73;75.13
50356;BME280;36264;51.296;-0.602;2022-07-23T02:53:58;101650.56;;;16.73;75.17
50356;BME280;36264;51.296;-0.602;2022-07-23T02:56:23;101664.53;;;16.73;74.82
50356;BME280;36264;51.296;-0.602;2022-07-23T02:58:48;101648.81;;;16.73;74.86
50356;BME280;36264;51.296;-0.602;2022-07-23T03:01:14;101648.88;;;16.72;75.00
50356;BME280;36264;51.296;-0.602;2022-07-23T03:03:39;101660.34;;;16.69;74.92
50356;BME280;36264;51.296;-0.602;2022-07-23T03:06:04;101649.38;;;16.59;75.12
50356;BME280;36264;51.296;-0.602;2022-07-23T03:08:30;101632.50;;;16.44;75.27
50356;BME280;36264;51.296;-0.602;2022-07-23T03:10:55;101644.84;;;16.42;75.35
50356;BME280;36264;51.296;-0.602;2022-07-23T03:13:21;101656.56;;;16.34;75.49
50356;BME280;36264;51.296;-0.602;2022-07-23T03:15:46;101655.28;;;16.22;75.78
50356;BME280;36264;51.296;-0.602;2022-07-23T03:18:12;101654.72;;;16.14;76.00
50356;BME280;36264;51.296;-0.602;2022-07-23T03:20:37;101650.63;;;16.06;76.11
50356;BME280;36264;51.296;-0.602;2022-07-23T03:23:02;101647.41;;;16.00;75.98
50356;BME280;36264;51.296;-0.602;2022-07-23T03:25:28;101652.09;;;15.91;76.19
50356;BME280;36264;51.296;-0.602;2022-07-23T03:27:53;101647.22;;;15.82;76.42
50356;BME280;36264;51.296;-0.602;2022-07-23T03:30:18;101639.53;;;15.78;76.39
50356;BME280;36264;51.296;-0.602;2022-07-23T03:32:44;101650.22;;;15.71;76.31
50356;BME280;36264;51.296;-0.602;2022-07-23T03:35:10;101649.72;;;15.62;76.48
50356;BME280;36264;51.296;-0.602;2022-07-23T03:37:35;101644.69;;;15.55;76.66
50356;BME280;36264;51.296;-0.602;2022-07-23T03:40:01;101641.53;;;15.47;76.68
50356;BME280;36264;51.296;-0.602;2022-07-23T03:42:26;101643.69;;;15.36;76.86
50356;BME280;36264;51.296;-0.602;2022-07-23T03:44:52;101626.66;;;15.24;76.93
50356;BME280;36264;51.296;-0.602;2022-07-23T03:47:17;101650.00;;;15.30;76.94
50356;BME280;36264;51.296;-0.602;2022-07-23T03:49:46;101646.69;;;15.25;76.82
50356;BME280;36264;51.296;-0.602;2022-07-23T03:52:12;101650.47;;;15.18;76.75
50356;BME280;36264;51.296;-0.602;2022-07-23T03:54:37;101650.63;;;15.13;76.65
50356;BME280;36264;51.296;-0.602;2022-07-23T03:57:03;101649.75;;;15.13;76.44
50356;BME280;36264;51.296;-0.602;2022-07-23T03:59:28;101643.78;;;15.09;76.61
50356;BME280;36264;51.296;-0.602;2022-07-23T04:01:53;101646.50;;;15.06;76.56
50356;BME280;36264;51.296;-0.602;2022-07-23T04:04:19;101652.72;;;15.03;76.38
50356;BME280;36264;51.296;-0.602;2022-07-23T04:06:44;101648.53;;;14.98;76.60
50356;BME280;36264;51.296;-0.602;2022-07-23T04:09:09;101650.56;;;14.90;76.64
50356;BME280;36264;51.296;-0.602;2022-07-23T04:11:35;101654.19;;;14.85;76.97
50356;BME280;36264;51.296;-0.602;2022-07-23T04:14:00;101650.78;;;14.83;76.74
50356;BME280;36264;51.296;-0.602;2022-07-23T04:16:25;101657.06;;;14.78;76.77
50356;BME280;36264;51.296;-0.602;2022-07-23T04:18:51;101658.03;;;14.75;76.84
50356;BME280;36264;51.296;-0.602;2022-07-23T04:21:16;101658.19;;;14.71;76.86
50356;BME280;36264;51.296;-0.602;2022-07-23T04:23:41;101664.38;;;14.68;77.03
50356;BME280;36264;51.296;-0.602;2022-07-23T04:26:07;101667.97;;;14.65;76.90
50356;BME280;36264;51.296;-0.602;2022-07-23T04:28:32;101662.91;;;14.59;77.06
50356;BME280;36264;51.296;-0.602;2022-07-23T04:30:58;101665.50;;;14.59;77.32
50356;BME280;36264;51.296;-0.602;2022-07-23T04:33:24;101659.50;;;14.56;77.07
50356;BME280;36264;51.296;-0.602;2022-07-23T04:35:49;101659.56;;;14.54;77.18
50356;BME280;36264;51.296;-0.602;2022-07-23T04:38:15;101657.97;;;14.50;77.25
50356;BME280;36264;51.296;-0.602;2022-07-23T04:40:40;101652.00;;;14.46;77.23
50356;BME280;36264;51.296;-0.602;2022-07-23T04:43:05;101663.28;;;14.47;77.58
50356;BME280;36264;51.296;-0.602;2022-07-23T04:45:31;101665.84;;;14.48;77.48
50356;BME280;36264;51.296;-0.602;2022-07-23T04:47:56;101670.16;;;14.49;77.32
50356;BME280;36264;51.296;-0.602;2022-07-23T04:50:22;101665.06;;;14.46;77.36
50356;BME280;36264;51.296;-0.602;2022-07-23T04:52:48;101673.75;;;14.47;77.26
50356;BME280;36264;51.296;-0.602;2022-07-23T04:55:14;101661.72;;;14.41;77.73
50356;BME280;36264;51.296;-0.602;2022-07-23T04:57:39;101671.13;;;14.47;77.32
50356;BME280;36264;51.296;-0.602;2022-07-23T05:00:06;101667.91;;;14.39;77.69
50356;BME280;36264;51.296;-0.602;2022-07-23T05:02:31;101684.09;;;14.50;77.64
50356;BME280;36264;51.296;-0.602;2022-07-23T05:04:57;101676.22;;;14.52;77.95
50356;BME280;36264;51.296;-0.602;2022-07-23T05:07:22;101664.69;;;14.57;77.82
50356;BME280;36264;51.296;-0.602;2022-07-23T05:09:47;101669.84;;;14.60;77.98
50356;BME280;36264;51.296;-0.602;2022-07-23T05:12:13;101672.22;;;14.68;77.65
50356;BME280;36264;51.296;-0.602;2022-07-23T05:14:38;101678.97;;;14.75;77.56
50356;BME280;36264;51.296;-0.602;2022-07-23T05:17:03;101686.66;;;14.80;78.06
50356;BME280;36264;51.296;-0.602;2022-07-23T05:19:29;101683.09;;;14.81;77.65
50356;BME280;36264;51.296;-0.602;2022-07-23T05:21:54;101689.97;;;14.85;78.51
50356;BME280;36264;51.296;-0.602;2022-07-23T05:24:20;101691.50;;;14.91;78.44
50356;BME280;36264;51.296;-0.602;2022-07-23T05:26:45;101681.97;;;14.90;78.37
50356;BME280;36264;51.296;-0.602;2022-07-23T05:29:10;101682.59;;;14.96;78.71
50356;BME280;36264;51.296;-0.602;2022-07-23T05:31:36;101678.22;;;14.97;79.18
50356;BME280;36264;51.296;-0.602;2022-07-23T05:34:01;101682.44;;;15.01;79.23
50356;BME280;36264;51.296;-0.602;2022-07-23T05:36:26;101680.63;;;15.03;78.87
50356;BME280;36264;51.296;-0.602;2022-07-23T05:38:52;101671.81;;;15.06;78.70
50356;BME280;36264;51.296;-0.602;2022-07-23T05:41:17;101673.44;;;15.08;78.64
50356;BME280;36264;51.296;-0.602;2022-07-23T05:43:42;101669.84;;;15.12;78.73
50356;BME280;36264;51.296;-0.602;2022-07-23T05:46:08;101667.94;;;15.16;78.93
50356;BME280;36264;51.296;-0.602;2022-07-23T05:48:34;101672.19;;;15.20;78.48
50356;BME280;36264;51.296;-0.602;2022-07-23T05:50:59;101651.56;;;15.11;79.65
50356;BME280;36264;51.296;-0.602;2022-07-23T05:53:26;101658.25;;;15.19;79.38
50356;BME280;36264;51.296;-0.602;2022-07-23T05:55:51;101659.78;;;15.25;79.28
50356;BME280;36264;51.296;-0.602;2022-07-23T05:58:16;101669.25;;;15.29;79.14
50356;BME280;36264;51.296;-0.602;2022-07-23T06:00:42;101672.66;;;15.31;79.86
50356;BME280;36264;51.296;-0.602;2022-07-23T06:03:07;101676.94;;;15.34;79.96
50356;BME280;36264;51.296;-0.602;2022-07-23T06:05:32;101667.31;;;15.34;80.75
50356;BME280;36264;51.296;-0.602;2022-07-23T06:07:58;101648.31;;;15.29;80.00
50356;BME280;36264;51.296;-0.602;2022-07-23T06:10:23;101663.63;;;15.40;80.09
50356;BME280;36264;51.296;-0.602;2022-07-23T06:12:49;101665.19;;;15.44;80.23
50356;BME280;36264;51.296;-0.602;2022-07-23T06:15:14;101668.38;;;15.52;80.45
50356;BME280;36264;51.296;-0.602;2022-07-23T06:17:39;101668.16;;;15.58;79.57
50356;BME280;36264;51.296;-0.602;2022-07-23T06:20:06;101675.78;;;15.65;79.63
50356;BME280;36264;51.296;-0.602;2022-07-23T06:22:32;101683.59;;;15.66;80.62
50356;BME280;36264;51.296;-0.602;2022-07-23T06:24:58;101677.34;;;15.70;79.97
50356;BME280;36264;51.296;-0.602;2022-07-23T06:27:23;101678.06;;;15.74;79.68
50356;BME280;36264;51.296;-0.602;2022-07-23T06:29:48;101684.00;;;15.79;79.69
50356;BME280;36264;51.296;-0.602;2022-07-23T06:32:14;101688.28;;;15.82;79.77
50356;BME280;36264;51.296;-0.602;2022-07-23T06:34:39;101681.28;;;15.82;79.47
50356;BME280;36264;51.296;-0.602;2022-07-23T06:37:04;101686.28;;;15.88;79.07
50356;BME280;36264;51.296;-0.602;2022-07-23T06:39:30;101673.91;;;15.92;78.73
50356;BME280;36264;51.296;-0.602;2022-07-23T06:41:55;101668.66;;;15.92;78.75
50356;BME280;36264;51.296;-0.602;2022-07-23T06:44:21;101679.63;;;16.02;78.58
50356;BME280;36264;51.296;-0.602;2022-07-23T06:46:46;101671.72;;;16.03;79.17
50356;BME280;36264;51.296;-0.602;2022-07-23T06:49:11;101688.91;;;16.10;78.75
50356;BME280;36264;51.296;-0.602;2022-07-23T06:51:37;101682.91;;;16.08;79.14
50356;BME280;36264;51.296;-0.602;2022-07-23T06:54:03;101684.41;;;16.14;78.56
50356;BME280;36264;51.296;-0.602;2022-07-23T06:56:28;101661.00;;;16.09;78.42
50356;BME280;36264;51.296;-0.602;2022-07-23T06:58:54;101666.47;;;16.25;78.01
50356;BME280;36264;51.296;-0.602;2022-07-23T07:01:19;101669.72;;;16.32;78.01
50356;BME280;36264;51.296;-0.602;2022-07-23T07:03:45;101674.69;;;16.38;77.85
50356;BME280;36264;51.296;-0.602;2022-07-23T07:06:10;101672.69;;;16.45;77.23
50356;BME280;36264;51.296;-0.602;2022-07-23T07:08:36;101668.97;;;16.51;77.60
50356;BME280;36264;51.296;-0.602;2022-07-23T07:11:01;101666.09;;;16.57;77.45
50356;BME280;36264;51.296;-0.602;2022-07-23T07:13:27;101669.38;;;16.62;77.30
50356;BME280;36264;51.296;-0.602;2022-07-23T07:15:52;101667.41;;;16.67;77.23
50356;BME280;36264;51.296;-0.602;2022-07-23T07:18:18;101673.38;;;16.71;76.97
50356;BME280;36264;51.296;-0.602;2022-07-23T07:20:43;101677.66;;;16.73;77.35
50356;BME280;36264;51.296;-0.602;2022-07-23T07:23:08;101681.06;;;16.75;77.10
50356;BME280;36264;51.296;-0.602;2022-07-23T07:25:34;101683.44;;;16.81;76.70
50356;BME280;36264;51.296;-0.602;2022-07-23T07:27:59;101689.22;;;16.90;76.58
50356;BME280;36264;51.296;-0.602;2022-07-23T07:30:25;101690.72;;;16.95;76.63
50356;BME280;36264;51.296;-0.602;2022-07-23T07:32:50;101686.94;;;17.02;76.17
50356;BME280;36264;51.296;-0.602;2022-07-23T07:35:16;101691.91;;;17.09;75.81
50356;BME280;36264;51.296;-0.602;2022-07-23T07:37:41;101687.19;;;17.17;75.40
50356;BME280;36264;51.296;-0.602;2022-07-23T07:40:07;101687.81;;;17.22;75.08
50356;BME280;36264;51.296;-0.602;2022-07-23T07:42:33;101688.63;;;17.24;74.97
50356;BME280;36264;51.296;-0.602;2022-07-23T07:44:58;101688.44;;;17.29;74.97
50356;BME280;36264;51.296;-0.602;2022-07-23T07:47:24;101690.06;;;17.31;74.73
50356;BME280;36264;51.296;-0.602;2022-07-23T07:49:49;101696.63;;;17.42;74.68
50356;BME280;36264;51.296;-0.602;2022-07-23T07:52:15;101685.84;;;17.48;74.07
50356;BME280;36264;51.296;-0.602;2022-07-23T07:54:40;101672.78;;;17.46;73.92
50356;BME280;36264;51.296;-0.602;2022-07-23T07:57:05;101692.28;;;17.60;73.59
50356;BME280;36264;51.296;-0.602;2022-07-23T07:59:31;101692.03;;;17.66;72.82
50356;BME280;36264;51.296;-0.602;2022-07-23T08:01:56;101696.13;;;17.71;72.87
50356;BME280;36264;51.296;-0.602;2022-07-23T08:04:21;101694.94;;;17.79;72.78
50356;BME280;36264;51.296;-0.602;2022-07-23T08:06:47;101698.13;;;17.85;72.53
50356;BME280;36264;51.296;-0.602;2022-07-23T08:09:12;101696.16;;;17.90;71.94
50356;BME280;36264;51.296;-0.602;2022-07-23T08:11:38;101701.34;;;17.92;71.57
50356;BME280;36264;51.296;-0.602;2022-07-23T08:14:03;101706.38;;;17.97;71.25
50356;BME280;36264;51.296;-0.602;2022-07-23T08:16:28;101701.84;;;18.00;71.08
50356;BME280;36264;51.296;-0.602;2022-07-23T08:18:54;101699.22;;;18.00;70.60
50356;BME280;36264;51.296;-0.602;2022-07-23T08:21:19;101707.19;;;17.99;70.48
50356;BME280;36264;51.296;-0.602;2022-07-23T08:23:45;101699.38;;;17.97;70.54
50356;BME280;36264;51.296;-0.602;2022-07-23T08:26:10;101696.66;;;17.99;70.36
50356;BME280;36264;51.296;-0.602;2022-07-23T08:28:36;101699.84;;;18.05;70.10
50356;BME280;36264;51.296;-0.602;2022-07-23T08:31:01;101685.69;;;18.08;69.87
50356;BME280;36264;51.296;-0.602;2022-07-23T08:33:27;101693.28;;;18.14;69.71
50356;BME280;36264;51.296;-0.602;2022-07-23T08:35:52;101678.59;;;18.10;69.59
50356;BME280;36264;51.296;-0.602;2022-07-23T08:38:20;101697.13;;;18.26;68.32
50356;BME280;36264;51.296;-0.602;2022-07-23T08:40:50;101692.63;;;18.28;66.69
50356;BME280;36264;51.296;-0.602;2022-07-23T08:43:20;101686.25;;;18.34;67.80
50356;BME280;36264;51.296;-0.602;2022-07-23T08:45:49;101691.91;;;18.43;67.21
50356;BME280;36264;51.296;-0.602;2022-07-23T08:48:19;101686.13;;;18.54;65.79
50356;BME280;36264;51.296;-0.602;2022-07-23T08:50:47;101685.69;;;18.62;66.66
50356;BME280;36264;51.296;-0.602;2022-07-23T08:53:14;101687.03;;;18.71;66.29
50356;BME280;36264;51.296;-0.602;2022-07-23T08:55:43;101687.50;;;18.79;63.81
50356;BME280;36264;51.296;-0.602;2022-07-23T08:58:09;101686.41;;;18.83;65.07
50356;BME280;36264;51.296;-0.602;2022-07-23T09:00:35;101685.50;;;18.84;63.67
50356;BME280;36264;51.296;-0.602;2022-07-23T09:03:00;101691.03;;;18.97;63.96
50356;BME280;36264;51.296;-0.602;2022-07-23T09:05:25;101695.94;;;19.03;63.42
50356;BME280;36264;51.296;-0.602;2022-07-23T09:10:55;101687.66;;;19.11;59.36
50356;BME280;36264;51.296;-0.602;2022-07-23T09:16:09;101696.78;;;19.21;61.49
50356;BME280;36264;51.296;-0.602;2022-07-23T09:18:53;101691.75;;;19.16;56.63
50356;BME280;36264;51.296;-0.602;2022-07-23T09:21:25;101690.91;;;19.16;58.30
50356;BME280;36264;51.296;-0.602;2022-07-23T09:26:31;101696.38;;;19.29;58.25
50356;BME280;36264;51.296;-0.602;2022-07-23T09:29:00;101694.19;;;19.37;59.72
50356;BME280;36264;51.296;-0.602;2022-07-23T09:31:42;101686.72;;;19.45;56.81
50356;BME280;36264;51.296;-0.602;2022-07-23T09:36:36;101689.38;;;19.61;58.36
50356;BME280;36264;51.296;-0.602;2022-07-23T09:39:02;101688.13;;;19.68;58.56
50356;BME280;36264;51.296;-0.602;2022-07-23T09:41:34;101692.91;;;19.78;58.06
50356;BME280;36264;51.296;-0.602;2022-07-23T09:44:10;101692.41;;;19.87;57.26
50356;BME280;36264;51.296;-0.602;2022-07-23T09:46:35;101681.53;;;19.93;57.10
50356;BME280;36264;51.296;-0.602;2022-07-23T09:49:13;101688.34;;;19.97;56.89
50356;BME280;36264;51.296;-0.602;2022-07-23T09:51:59;101679.22;;;20.03;56.24
50356;BME280;36264;51.296;-0.602;2022-07-23T09:54:34;101680.69;;;20.08;53.75
50356;BME280;36264;51.296;-0.602;2022-07-23T09:57:06;101682.97;;;20.15;56.27
50356;BME280;36264;51.296;-0.602;2022-07-23T09:59:36;101673.53;;;20.11;56.48
50356;BME280;36264;51.296;-0.602;2022-07-23T10:02:03;101694.69;;;20.25;54.97
50356;BME280;36264;51.296;-0.602;2022-07-23T10:04:31;101693.41;;;20.32;54.26
50356;BME280;36264;51.296;-0.602;2022-07-23T10:06:59;101688.81;;;20.36;55.35
50356;BME280;36264;51.296;-0.602;2022-07-23T10:09:32;101677.22;;;20.38;54.17
50356;BME280;36264;51.296;-0.602;2022-07-23T10:12:03;101679.34;;;20.48;52.08
50356;BME280;36264;51.296;-0.602;2022-07-23T10:14:52;101685.03;;;20.56;54.00
50356;BME280;36264;51.296;-0.602;2022-07-23T10:17:18;101688.22;;;20.61;54.12
50356;BME280;36264;51.296;-0.602;2022-07-23T10:19:44;101688.22;;;20.61;54.16
50356;BME280;36264;51.296;-0.602;2022-07-23T10:22:13;101683.13;;;20.58;50.97
50356;BME280;36264;51.296;-0.602;2022-07-23T10:29:51;101687.59;;;20.88;53.30
50356;BME280;36264;51.296;-0.602;2022-07-23T10:32:36;101672.03;;;20.97;48.50
50356;BME280;36264;51.296;-0.602;2022-07-23T10:35:18;101664.75;;;21.01;51.63
50356;BME280;36264;51.296;-0.602;2022-07-23T10:37:55;101667.41;;;21.01;47.54
50356;BME280;36264;51.296;-0.602;2022-07-23T10:40:22;101668.28;;;21.02;51.15
50356;BME280;36264;51.296;-0.602;2022-07-23T10:42:52;101661.75;;;21.07;51.74
50356;BME280;36264;51.296;-0.602;2022-07-23T10:45:35;101662.03;;;21.03;48.37
50356;BME280;36264;51.296;-0.602;2022-07-23T10:48:16;101662.22;;;20.99;47.86
50356;BME280;36264;51.296;-0.602;2022-07-23T10:50:43;101666.84;;;21.10;50.63
50356;BME280;36264;51.296;-0.602;2022-07-23T10:58:09;101667.22;;;21.33;49.61
50356;BME280;36264;51.296;-0.602;2022-07-23T11:00:38;101664.19;;;21.39;51.01
50356;BME280;36264;51.296;-0.602;2022-07-23T11:03:45;101658.91;;;21.39;48.66
50356;BME280;36264;51.296;-0.602;2022-07-23T11:06:12;101659.59;;;21.43;49.60
50356;BME280;36264;51.296;-0.602;2022-07-23T11:08:40;101658.19;;;21.51;49.97
50356;BME280;36264;51.296;-0.602;2022-07-23T11:13:37;101644.75;;;21.69;48.09
50356;BME280;36264;51.296;-0.602;2022-07-23T11:16:13;101656.44;;;21.79;47.08
50356;BME280;36264;51.296;-0.602;2022-07-23T11:32:08;101654.00;;;22.03;48.25
50356;BME280;36264;51.296;-0.602;2022-07-23T11:34:35;101636.47;;;22.15;47.72
50356;BME280;36264;51.296;-0.602;2022-07-23T11:37:05;101639.34;;;22.25;48.55
50356;BME280;36264;51.296;-0.602;2022-07-23T11:39:32;101633.81;;;22.42;48.89
50356;BME280;36264;51.296;-0.602;2022-07-23T11:41:59;101636.59;;;22.54;48.82
50356;BME280;36264;51.296;-0.602;2022-07-23T11:44:46;101631.84;;;22.59;48.45
50356;BME280;36264;51.296;-0.602;2022-07-23T11:47:12;101636.81;;;22.64;47.54
50356;BME280;36264;51.296;-0.602;2022-07-23T11:49:38;101634.69;;;22.69;47.59
50356;BME280;36264;51.296;-0.602;2022-07-23T11:54:34;101620.94;;;22.64;48.50
50356;BME280;36264;51.296;-0.602;2022-07-23T11:57:01;101626.66;;;22.83;48.76
50356;BME280;36264;51.296;-0.602;2022-07-23T11:59:31;101637.66;;;23.03;48.03
50356;BME280;36264;51.296;-0.602;2022-07-23T12:02:02;101632.72;;;23.11;47.29
50356;BME280;36264;51.296;-0.602;2022-07-23T12:04:57;101639.50;;;23.15;43.96
50356;BME280;36264;51.296;-0.602;2022-07-23T12:07:32;101635.78;;;23.05;44.92
50356;BME280;36264;51.296;-0.602;2022-07-23T12:10:16;101627.81;;;23.05;47.03
50356;BME280;36264;51.296;-0.602;2022-07-23T12:12:57;101637.34;;;23.07;47.84
50356;BME280;36264;51.296;-0.602;2022-07-23T12:15:28;101632.94;;;23.08;46.93
50356;BME280;36264;51.296;-0.602;2022-07-23T12:17:56;101630.47;;;23.18;47.29
50356;BME280;36264;51.296;-0.602;2022-07-23T12:20:24;101618.38;;;23.26;47.75
50356;BME280;36264;51.296;-0.602;2022-07-23T12:22:53;101615.59;;;23.41;45.54
50356;BME280;36264;51.296;-0.602;2022-07-23T12:25:23;101615.03;;;23.48;47.60
50356;BME280;36264;51.296;-0.602;2022-07-23T12:30:34;101615.16;;;23.71;45.11
50356;BME280;36264;51.296;-0.602;2022-07-23T12:33:00;101616.00;;;23.84;46.79
50356;BME280;36264;51.296;-0.602;2022-07-23T12:35:46;101620.00;;;23.90;44.95
50356;BME280;36264;51.296;-0.602;2022-07-23T12:38:15;101624.56;;;23.88;46.48
50356;BME280;36264;51.296;-0.602;2022-07-23T12:40:49;101611.09;;;23.91;45.53
50356;BME280;36264;51.296;-0.602;2022-07-23T12:43:23;101611.59;;;23.96;47.01
50356;BME280;36264;51.296;-0.602;2022-07-23T12:45:54;101624.44;;;24.14;46.30
50356;BME280;36264;51.296;-0.602;2022-07-23T12:48:25;101618.47;;;24.34;44.96
50356;BME280;36264;51.296;-0.602;2022-07-23T12:51:16;101601.13;;;24.41;43.55
50356;BME280;36264;51.296;-0.602;2022-07-23T12:53:46;101605.22;;;24.46;46.87
50356;BME280;36264;51.296;-0.602;2022-07-23T12:56:18;101594.59;;;24.81;46.01
50356;BME280;36264;51.296;-0.602;2022-07-23T12:58:58;101589.03;;;25.07;46.31
50356;BME280;36264;51.296;-0.602;2022-07-23T13:01:31;101572.94;;;25.20;45.46
50356;BME280;36264;51.296;-0.602;2022-07-23T13:04:18;101581.25;;;25.26;44.53
50356;BME280;36264;51.296;-0.602;2022-07-23T13:06:53;101564.00;;;25.21;46.67
50356;BME280;36264;51.296;-0.602;2022-07-23T13:09:24;101565.19;;;25.17;46.95
50356;BME280;36264;51.296;-0.602;2022-07-23T13:11:51;101564.13;;;25.19;46.65
50356;BME280;36264;51.296;-0.602;2022-07-23T13:14:18;101576.34;;;25.33;46.53
50356;BME280;36264;51.296;-0.602;2022-07-23T13:16:45;101574.16;;;25.38;45.51
50356;BME280;36264;51.296;-0.602;2022-07-23T13:19:11;101571.97;;;25.43;45.76
50356;BME280;36264;51.296;-0.602;2022-07-23T13:21:36;101579.44;;;25.49;44.93
50356;BME280;36264;51.296;-0.602;2022-07-23T13:24:02;101586.44;;;25.62;45.70